Time;durP1;ratioP1;P1;durP2;ratioP2;P2;SDS_P1;SDS_P2;PMS_P1;PMS_P2;Temp;Humidity;BMP_temperature;BMP_pressure;BME280_temperature;BME280_humidity;BME280_pressure;Samples;Min_cycle;Max_cycle;Signal;HPM_P1;HPM_P2
2022/03/05 00:00:25;;;;;;;;;;;1.00;99.90;;;;;;5074706;28;19966;-57
2022/03/05 00:02:51;;;;;;;;;;;1.00;99.90;;;;;;5093798;28;20256;-57
2022/03/05 00:05:16;;;;;;;;;;;1.00;99.90;;;;;;5093873;28;19976;-56
2022/03/05 00:07:42;;;;;;;;;;;1.00;99.90;;;;;;5094002;28;19964;-57
2022/03/05 00:10:07;;;;;;;;;;;1.00;99.90;;;;;;5093519;28;19912;-57
2022/03/05 00:12:33;;;;;;;;;;;0.90;99.90;;;;;;5074835;28;20444;-58
2022/03/05 00:14:59;;;;;;;;;;;0.90;99.90;;;;;;5073612;28;19912;-56
2022/03/05 00:17:24;;;;;;;;;;;0.90;99.90;;;;;;5073849;28;19912;-57
2022/03/05 00:19:50;;;;;;;;;;;0.90;99.90;;;;;;5072823;28;20371;-56
2022/03/05 00:22:15;;;;;;;;;;;0.90;99.90;;;;;;5088458;28;19920;-56
2022/03/05 00:24:40;;;;;;;;;;;0.80;99.90;;;;;;5092942;28;19912;-56
2022/03/05 00:27:06;;;;;;;;;;;0.80;99.90;;;;;;5093912;28;19961;-56
2022/03/05 00:29:31;;;;;;;;;;;0.80;99.90;;;;;;5093777;28;20333;-57
2022/03/05 00:31:57;;;;;;;;;;;0.80;99.90;;;;;;5080473;28;19935;-56
2022/03/05 00:34:22;;;;;;;;;;;0.80;99.90;;;;;;5073540;28;19916;-58
2022/03/05 00:36:48;;;;;;;;;;;0.80;99.90;;;;;;5072977;28;19954;-57
2022/03/05 00:39:13;;;;;;;;;;;0.70;99.90;;;;;;5072888;28;20002;-56
2022/03/05 00:41:39;;;;;;;;;;;0.70;99.90;;;;;;5081698;28;19916;-57
2022/03/05 00:44:04;;;;;;;;;;;0.70;99.90;;;;;;5093546;28;19991;-58
2022/03/05 00:46:29;;;;;;;;;;;0.70;99.90;;;;;;5092920;28;19909;-56
2022/03/05 00:48:55;;;;;;;;;;;0.70;99.90;;;;;;5093092;28;20391;-56
2022/03/05 00:51:21;;;;;;;;;;;0.70;99.90;;;;;;5091341;28;20109;-57
2022/03/05 00:53:46;;;;;;;;;;;0.60;99.90;;;;;;5092414;28;19908;-56
2022/03/05 00:56:11;;;;;;;;;;;0.60;99.90;;;;;;5093446;28;19918;-56
2022/03/05 00:58:37;;;;;;;;;;;0.60;99.90;;;;;;5093031;28;19934;-58
2022/03/05 01:01:02;;;;;;;;;;;0.60;99.90;;;;;;5089552;28;20002;-57
2022/03/05 01:03:28;;;;;;;;;;;0.60;99.90;;;;;;5072949;28;19917;-57
2022/03/05 01:05:54;;;;;;;;;;;0.50;99.90;;;;;;5072606;28;19954;-55
2022/03/05 01:08:19;;;;;;;;;;;0.60;99.90;;;;;;5072543;28;19995;-56
2022/03/05 01:10:45;;;;;;;;;;;0.50;99.90;;;;;;5072527;28;19944;-57
2022/03/05 01:13:10;;;;;;;;;;;0.50;99.90;;;;;;5093045;28;19915;-57
2022/03/05 01:15:36;;;;;;;;;;;0.60;99.90;;;;;;5091943;28;19908;-56
2022/03/05 01:18:02;;;;;;;;;;;0.50;99.90;;;;;;5093038;28;19962;-57
2022/03/05 01:20:27;;;;;;;;;;;0.50;99.90;;;;;;5092669;28;19912;-57
2022/03/05 01:22:53;;;;;;;;;;;0.50;99.90;;;;;;5071859;28;19926;-57
2022/03/05 01:25:18;;;;;;;;;;;0.50;99.90;;;;;;5072920;28;19908;-56
2022/03/05 01:27:44;;;;;;;;;;;0.50;99.90;;;;;;5072411;28;19955;-57
2022/03/05 01:30:10;;;;;;;;;;;0.50;99.90;;;;;;5071954;28;19919;-57
2022/03/05 01:32:35;;;;;;;;;;;0.50;99.90;;;;;;5089351;28;19965;-56
2022/03/05 01:35:01;;;;;;;;;;;0.50;99.90;;;;;;5092307;28;20382;-56
2022/03/05 01:37:26;;;;;;;;;;;0.40;99.90;;;;;;5092923;28;20363;-57
2022/03/05 01:39:51;;;;;;;;;;;0.40;99.90;;;;;;5092539;28;20243;-56
2022/03/05 01:42:21;;;;;;;;;;;0.40;99.90;;;;;;5074456;28;20366;-57
2022/03/05 01:44:46;;;;;;;;;;;0.50;99.90;;;;;;5072270;28;19908;-57
2022/03/05 01:47:12;;;;;;;;;;;0.40;99.90;;;;;;5072458;28;19932;-57
2022/03/05 01:49:37;;;;;;;;;;;0.40;99.90;;;;;;5071519;28;19916;-57
2022/03/05 01:52:03;;;;;;;;;;;0.40;99.90;;;;;;5073378;28;19919;-56
2022/03/05 01:54:29;;;;;;;;;;;0.40;99.90;;;;;;5072648;28;19909;-57
2022/03/05 01:56:55;;;;;;;;;;;0.40;99.90;;;;;;5071426;28;19913;-57
2022/03/05 01:59:21;;;;;;;;;;;0.30;99.90;;;;;;5072412;28;19915;-56
2022/03/05 02:01:46;;;;;;;;;;;0.30;99.90;;;;;;5084429;28;19916;-56
2022/03/05 02:04:12;;;;;;;;;;;0.30;99.90;;;;;;5091918;28;19908;-56
2022/03/05 02:06:37;;;;;;;;;;;0.40;99.90;;;;;;5092380;28;19912;-56
2022/03/05 02:09:03;;;;;;;;;;;0.30;99.90;;;;;;5090628;28;19921;-57
2022/03/05 02:11:29;;;;;;;;;;;0.30;99.90;;;;;;5092002;28;19908;-57
2022/03/05 02:13:54;;;;;;;;;;;0.40;99.90;;;;;;5092053;28;19912;-56
2022/03/05 02:16:20;;;;;;;;;;;0.30;99.90;;;;;;5092513;28;20589;-57
2022/03/05 02:18:47;;;;;;;;;;;0.30;99.90;;;;;;5091582;28;19912;-56
2022/03/05 02:21:12;;;;;;;;;;;0.40;99.90;;;;;;5080143;28;19912;-57
2022/03/05 02:23:38;;;;;;;;;;;0.30;99.90;;;;;;5071899;28;19924;-57
2022/03/05 02:26:03;;;;;;;;;;;0.30;99.90;;;;;;5071678;28;20362;-56
2022/03/05 02:28:30;;;;;;;;;;;0.30;99.90;;;;;;5072089;28;20240;-57
2022/03/05 02:30:55;;;;;;;;;;;0.30;99.90;;;;;;5087631;28;20005;-56
2022/03/05 02:33:21;;;;;;;;;;;0.30;99.90;;;;;;5094392;28;19943;-58
2022/03/05 02:35:47;;;;;;;;;;;0.40;99.90;;;;;;5095711;28;19915;-57
2022/03/05 02:38:13;;;;;;;;;;;0.30;99.90;;;;;;5095694;28;19912;-56
2022/03/05 02:40:39;;;;;;;;;;;0.40;99.90;;;;;;5078593;28;20014;-56
2022/03/05 02:43:05;;;;;;;;;;;0.30;99.90;;;;;;5075326;28;20000;-56
2022/03/05 02:45:30;;;;;;;;;;;0.30;99.90;;;;;;5075211;28;19916;-56
2022/03/05 02:47:56;;;;;;;;;;;0.30;99.90;;;;;;5075258;28;20394;-57
2022/03/05 02:50:21;;;;;;;;;;;0.30;99.90;;;;;;5076332;28;20232;-56
2022/03/05 02:52:47;;;;;;;;;;;0.30;99.90;;;;;;5074643;28;20528;-56
2022/03/05 02:55:12;;;;;;;;;;;0.30;99.90;;;;;;5075347;28;19908;-56
2022/03/05 02:57:38;;;;;;;;;;;0.30;99.90;;;;;;5074451;28;19913;-57
2022/03/05 03:00:04;;;;;;;;;;;0.20;99.90;;;;;;5088171;28;19962;-57
2022/03/05 03:02:29;;;;;;;;;;;0.20;99.90;;;;;;5095405;28;20010;-57
2022/03/05 03:04:55;;;;;;;;;;;0.20;99.90;;;;;;5095092;28;20359;-56
2022/03/05 03:07:20;;;;;;;;;;;0.20;99.90;;;;;;5089855;28;19931;-55
2022/03/05 03:09:46;;;;;;;;;;;0.20;99.90;;;;;;5074690;28;19912;-58
2022/03/05 03:12:11;;;;;;;;;;;0.20;99.90;;;;;;5074853;28;19909;-57
2022/03/05 03:14:37;;;;;;;;;;;0.20;99.90;;;;;;5074352;28;20290;-58
2022/03/05 03:17:03;;;;;;;;;;;0.20;99.90;;;;;;5076487;28;19908;-56
2022/03/05 03:19:29;;;;;;;;;;;0.20;99.90;;;;;;5095167;28;19912;-56
2022/03/05 03:21:54;;;;;;;;;;;0.20;99.90;;;;;;5094217;28;19945;-56
2022/03/05 03:24:20;;;;;;;;;;;0.20;99.90;;;;;;5095034;28;19912;-56
2022/03/05 03:26:45;;;;;;;;;;;0.20;99.90;;;;;;5094706;28;19915;-57
2022/03/05 03:29:11;;;;;;;;;;;0.10;99.90;;;;;;5074519;28;19909;-56
2022/03/05 03:31:37;;;;;;;;;;;0.10;99.90;;;;;;5074159;28;19963;-57
2022/03/05 03:34:02;;;;;;;;;;;0.10;99.90;;;;;;5074657;28;19936;-57
2022/03/05 03:36:28;;;;;;;;;;;0.10;99.90;;;;;;5073928;28;19908;-56
2022/03/05 03:38:53;;;;;;;;;;;0.10;99.90;;;;;;5090981;28;20337;-57
2022/03/05 03:41:19;;;;;;;;;;;0.10;99.90;;;;;;5094565;28;19908;-57
2022/03/05 03:43:44;;;;;;;;;;;0.10;99.90;;;;;;5092728;28;20409;-55
2022/03/05 03:46:10;;;;;;;;;;;0.10;99.90;;;;;;5094571;28;20012;-56
2022/03/05 03:48:35;;;;;;;;;;;0.10;99.90;;;;;;5091869;28;19951;-56
2022/03/05 03:51:01;;;;;;;;;;;0.00;99.90;;;;;;5094193;28;19912;-57
2022/03/05 03:53:26;;;;;;;;;;;0.00;99.90;;;;;;5094276;28;20236;-56
2022/03/05 03:55:52;;;;;;;;;;;0.00;99.90;;;;;;5093607;28;19919;-57
2022/03/05 03:58:17;;;;;;;;;;;0.00;99.90;;;;;;5080105;28;20351;-57
2022/03/05 04:00:43;;;;;;;;;;;0.00;99.90;;;;;;5073753;28;19962;-57
2022/03/05 04:03:08;;;;;;;;;;;0.00;99.90;;;;;;5073471;28;19916;-56
2022/03/05 04:05:34;;;;;;;;;;;0.00;99.90;;;;;;5073741;28;19915;-57
2022/03/05 04:10:43;;;;;;;;;;;-0.10;99.90;;;;;;5093297;28;19962;-57
2022/03/05 04:13:09;;;;;;;;;;;-0.10;99.90;;;;;;5093803;28;19912;-57
2022/03/05 04:15:34;;;;;;;;;;;-0.10;99.90;;;;;;5094138;28;19908;-58
2022/03/05 04:18:00;;;;;;;;;;;-0.10;99.90;;;;;;5079588;28;19934;-57
2022/03/05 04:20:25;;;;;;;;;;;-0.10;99.90;;;;;;5073565;28;19913;-57
2022/03/05 04:22:50;;;;;;;;;;;-0.10;99.90;;;;;;5073428;28;19951;-56
2022/03/05 04:25:16;;;;;;;;;;;-0.20;99.90;;;;;;5073024;28;19908;-57
2022/03/05 04:27:41;;;;;;;;;;;-0.20;99.90;;;;;;5082867;28;19912;-58
2022/03/05 04:30:07;;;;;;;;;;;-0.20;99.90;;;;;;5093453;28;19914;-57
2022/03/05 04:32:33;;;;;;;;;;;-0.20;99.90;;;;;;5093231;28;19912;-57
2022/03/05 04:34:58;;;;;;;;;;;-0.20;99.90;;;;;;5093702;28;19908;-57
2022/03/05 04:37:24;;;;;;;;;;;-0.20;99.90;;;;;;5086193;28;19913;-56
2022/03/05 04:39:49;;;;;;;;;;;-0.20;99.90;;;;;;5072554;28;19909;-57
2022/03/05 04:42:15;;;;;;;;;;;-0.30;99.90;;;;;;5073186;28;19916;-57
2022/03/05 04:44:41;;;;;;;;;;;-0.30;99.90;;;;;;5073105;28;20433;-56
2022/03/05 04:47:06;;;;;;;;;;;-0.40;99.90;;;;;;5075549;28;19916;-57
2022/03/05 04:49:32;;;;;;;;;;;-0.40;99.90;;;;;;5093408;28;19915;-57
2022/03/05 04:51:57;;;;;;;;;;;-0.40;99.90;;;;;;5092553;28;20305;-57
2022/03/05 04:54:25;;;;;;;;;;;-0.40;99.90;;;;;;5093146;28;19908;-58
2022/03/05 04:56:50;;;;;;;;;;;-0.40;99.90;;;;;;5088161;28;19912;-57
2022/03/05 04:59:16;;;;;;;;;;;-0.40;99.90;;;;;;5072538;28;20334;-57
2022/03/05 05:01:41;;;;;;;;;;;-0.40;99.90;;;;;;5072729;28;20309;-57
2022/03/05 05:04:07;;;;;;;;;;;-0.40;99.90;;;;;;5073010;28;19920;-57
2022/03/05 05:06:32;;;;;;;;;;;-0.40;99.90;;;;;;5073718;28;20224;-58
2022/03/05 05:08:58;;;;;;;;;;;-0.40;99.90;;;;;;5093072;28;19912;-57
2022/03/05 05:11:23;;;;;;;;;;;-0.40;99.90;;;;;;5093027;28;19955;-58
2022/03/05 05:13:49;;;;;;;;;;;-0.50;99.90;;;;;;5092324;28;19908;-57
2022/03/05 05:16:14;;;;;;;;;;;-0.50;99.90;;;;;;5091297;28;19908;-57
2022/03/05 05:19:24;;;;;;;;;;;-0.40;99.90;;;;;;5072436;28;19999;-57
2022/03/05 05:21:25;;;;;;;;;;;-0.50;99.90;;;;;;5071974;28;19948;-56
2022/03/05 05:23:50;;;;;;;;;;;-0.50;99.90;;;;;;5072612;28;19948;-58
2022/03/05 05:26:16;;;;;;;;;;;-0.50;99.90;;;;;;5088088;28;19912;-58
2022/03/05 05:28:41;;;;;;;;;;;-0.50;99.90;;;;;;5091976;28;19908;-56
2022/03/05 05:31:07;;;;;;;;;;;-0.50;99.90;;;;;;5092630;28;20266;-58
2022/03/05 05:33:32;;;;;;;;;;;-0.50;99.90;;;;;;5092968;28;20318;-57
2022/03/05 05:35:58;;;;;;;;;;;-0.60;99.90;;;;;;5079298;28;19939;-57
2022/03/05 05:38:23;;;;;;;;;;;-0.60;99.90;;;;;;5072577;28;19909;-58
2022/03/05 05:40:48;;;;;;;;;;;-0.60;99.90;;;;;;5072367;28;19912;-57
2022/03/05 05:43:14;;;;;;;;;;;-0.60;99.90;;;;;;5071951;28;19916;-56
2022/03/05 05:45:39;;;;;;;;;;;-0.60;99.90;;;;;;5082214;28;19912;-57
2022/03/05 05:48:05;;;;;;;;;;;-0.70;99.90;;;;;;5092736;28;19908;-57
2022/03/05 05:50:30;;;;;;;;;;;-0.60;99.90;;;;;;5092048;28;19915;-58
2022/03/05 05:52:56;;;;;;;;;;;-0.70;99.90;;;;;;5092431;28;19908;-57
2022/03/05 05:55:21;;;;;;;;;;;-0.70;99.90;;;;;;5084583;28;19916;-56
2022/03/05 05:57:47;;;;;;;;;;;-0.70;99.90;;;;;;5072291;28;19909;-57
2022/03/05 06:00:12;;;;;;;;;;;-0.70;99.90;;;;;;5072471;28;20543;-58
2022/03/05 06:02:38;;;;;;;;;;;-0.80;99.90;;;;;;5071586;28;19925;-57
2022/03/05 06:05:04;;;;;;;;;;;-0.80;99.90;;;;;;5076662;28;19912;-58
2022/03/05 06:07:29;;;;;;;;;;;-0.80;99.90;;;;;;5093648;28;19966;-57
2022/03/05 06:09:54;;;;;;;;;;;-0.80;99.90;;;;;;5095716;28;19908;-57
2022/03/05 06:12:20;;;;;;;;;;;-0.80;99.90;;;;;;5096372;28;19908;-57
2022/03/05 06:14:45;;;;;;;;;;;-0.80;99.90;;;;;;5093979;28;20430;-57
2022/03/05 06:17:11;;;;;;;;;;;-0.80;99.90;;;;;;5075681;28;20347;-58
2022/03/05 06:19:36;;;;;;;;;;;-0.80;99.90;;;;;;5075532;28;20355;-57
2022/03/05 06:22:02;;;;;;;;;;;-0.80;99.90;;;;;;5075832;28;20010;-58
2022/03/05 06:24:28;;;;;;;;;;;-0.80;99.90;;;;;;5075214;28;20355;-57
2022/03/05 06:26:54;;;;;;;;;;;-0.80;99.90;;;;;;5095033;28;19965;-58
2022/03/05 06:29:19;;;;;;;;;;;-0.80;99.90;;;;;;5096147;28;19915;-57
2022/03/05 06:31:45;;;;;;;;;;;-0.70;99.90;;;;;;5094471;28;19927;-58
2022/03/05 06:34:12;;;;;;;;;;;-0.70;99.90;;;;;;5095259;28;22754;-57
2022/03/05 06:36:37;;;;;;;;;;;-0.70;99.90;;;;;;5078222;28;19916;-57
2022/03/05 06:39:03;;;;;;;;;;;-0.70;99.90;;;;;;5075207;28;19944;-58
2022/03/05 06:41:29;;;;;;;;;;;-0.70;99.90;;;;;;5075529;28;19995;-57
2022/03/05 06:43:54;;;;;;;;;;;-0.60;99.90;;;;;;5075271;28;19916;-58
2022/03/05 06:46:20;;;;;;;;;;;-0.60;99.90;;;;;;5089261;28;19951;-57
2022/03/05 06:48:46;;;;;;;;;;;-0.60;99.90;;;;;;5095103;28;19908;-57
2022/03/05 06:51:12;;;;;;;;;;;-0.50;99.90;;;;;;5095804;28;19908;-57
2022/03/05 06:53:38;;;;;;;;;;;-0.50;99.90;;;;;;5094813;28;19922;-58
2022/03/05 06:56:03;;;;;;;;;;;-0.50;99.90;;;;;;5083385;28;19916;-57
2022/03/05 06:58:29;;;;;;;;;;;-0.40;99.90;;;;;;5074704;28;19936;-57
2022/03/05 07:00:54;;;;;;;;;;;-0.40;99.90;;;;;;5075030;28;19909;-57
2022/03/05 07:03:20;;;;;;;;;;;-0.30;99.90;;;;;;5075187;28;19917;-58
2022/03/05 07:05:45;;;;;;;;;;;-0.30;99.90;;;;;;5083162;28;19916;-57
2022/03/05 07:08:11;;;;;;;;;;;-0.30;99.90;;;;;;5095584;28;19916;-58
2022/03/05 07:10:36;;;;;;;;;;;-0.30;99.90;;;;;;5094875;28;19945;-57
2022/03/05 07:13:02;;;;;;;;;;;-0.20;99.90;;;;;;5094822;28;20002;-57
2022/03/05 07:15:27;;;;;;;;;;;-0.10;99.90;;;;;;5086063;28;19912;-57
2022/03/05 07:17:53;;;;;;;;;;;-0.10;99.90;;;;;;5073102;28;20291;-58
2022/03/05 07:20:20;;;;;;;;;;;0.00;99.90;;;;;;5074541;28;19978;-58
2022/03/05 07:22:45;;;;;;;;;;;0.10;99.90;;;;;;5074479;28;19916;-58
2022/03/05 07:25:11;;;;;;;;;;;0.20;99.90;;;;;;5092696;28;20274;-58
2022/03/05 07:27:37;;;;;;;;;;;0.30;99.90;;;;;;5094018;28;19912;-58
2022/03/05 07:30:03;;;;;;;;;;;0.40;99.90;;;;;;5094692;28;19950;-58
2022/03/05 07:32:28;;;;;;;;;;;0.50;99.90;;;;;;5094853;28;20018;-57
2022/03/05 07:34:54;;;;;;;;;;;0.60;99.90;;;;;;5077934;28;19924;-57
2022/03/05 07:37:19;;;;;;;;;;;0.70;99.90;;;;;;5074524;28;20441;-58
2022/03/05 07:39:45;;;;;;;;;;;0.80;99.90;;;;;;5074100;28;20336;-57
2022/03/05 07:42:11;;;;;;;;;;;0.80;99.90;;;;;;5073920;28;19912;-58
2022/03/05 07:44:36;;;;;;;;;;;0.90;99.90;;;;;;5086922;28;20287;-58
2022/03/05 07:47:02;;;;;;;;;;;1.00;99.90;;;;;;5094267;28;19908;-58
2022/03/05 07:49:28;;;;;;;;;;;1.10;99.90;;;;;;5093881;28;19990;-58
2022/03/05 07:51:56;;;;;;;;;;;1.10;99.90;;;;;;5086214;28;19913;-58
2022/03/05 07:54:22;;;;;;;;;;;1.30;99.90;;;;;;5080167;28;19918;-57
2022/03/05 07:56:47;;;;;;;;;;;1.30;99.90;;;;;;5103232;28;19907;-59
2022/03/05 07:59:13;;;;;;;;;;;1.40;99.90;;;;;;5108380;28;19920;-57
2022/03/05 08:01:39;;;;;;;;;;;1.50;99.90;;;;;;5082682;28;19919;-58
2022/03/05 08:04:04;;;;;;;;;;;1.50;99.90;;;;;;5114060;28;19911;-58
2022/03/05 08:06:29;;;;;;;;;;;1.60;99.90;;;;;;5101463;28;19918;-58
2022/03/05 08:08:57;;;;;;;;;;;1.70;99.90;;;;;;5093303;28;20003;-58
2022/03/05 08:11:23;;;;;;;;;;;1.80;99.90;;;;;;5094178;28;20355;-59
2022/03/05 08:13:48;;;;;;;;;;;1.80;99.90;;;;;;5091514;28;20010;-56
2022/03/05 08:16:14;;;;;;;;;;;1.90;99.90;;;;;;5093568;28;19947;-57
2022/03/05 08:18:39;;;;;;;;;;;2.00;99.90;;;;;;5093003;28;19912;-57
2022/03/05 08:21:05;;;;;;;;;;;2.00;99.90;;;;;;5073714;28;19913;-57
2022/03/05 08:23:30;;;;;;;;;;;2.10;99.90;;;;;;5073174;28;20363;-58
2022/03/05 08:25:56;;;;;;;;;;;2.20;99.90;;;;;;5073363;28;19913;-58
2022/03/05 08:28:22;;;;;;;;;;;2.20;99.90;;;;;;5084684;28;19913;-57
2022/03/05 08:30:48;;;;;;;;;;;2.30;99.90;;;;;;5091918;28;20390;-57
2022/03/05 08:33:13;;;;;;;;;;;2.40;99.90;;;;;;5093733;28;19946;-58
2022/03/05 08:35:38;;;;;;;;;;;2.40;99.90;;;;;;5082979;28;20023;-57
2022/03/05 08:38:04;;;;;;;;;;;2.50;99.90;;;;;;5102321;28;19922;-58
2022/03/05 08:40:29;;;;;;;;;;;2.50;99.90;;;;;;5110022;28;19991;-58
2022/03/05 08:42:55;;;;;;;;;;;2.60;99.90;;;;;;5093259;28;19920;-58
2022/03/05 08:45:20;;;;;;;;;;;2.70;99.90;;;;;;5093093;28;19908;-57
2022/03/05 08:47:46;;;;;;;;;;;2.70;99.90;;;;;;5093088;28;19908;-57
2022/03/05 08:50:12;;;;;;;;;;;2.80;99.90;;;;;;5093423;28;20488;-58
2022/03/05 08:52:37;;;;;;;;;;;2.90;99.90;;;;;;5092694;28;20052;-57
2022/03/05 08:55:04;;;;;;;;;;;2.90;99.90;;;;;;5113378;28;19931;-58
2022/03/05 08:57:29;;;;;;;;;;;3.00;99.90;;;;;;5113605;28;19914;-57
2022/03/05 08:59:55;;;;;;;;;;;3.10;99.90;;;;;;5082434;28;20341;-59
2022/03/05 09:02:21;;;;;;;;;;;3.10;99.90;;;;;;5091840;28;19985;-57
2022/03/05 09:04:46;;;;;;;;;;;3.20;99.90;;;;;;5082411;28;19913;-57
2022/03/05 09:07:11;;;;;;;;;;;3.20;99.90;;;;;;5102996;28;19908;-57
2022/03/05 09:09:37;;;;;;;;;;;3.30;99.90;;;;;;5109320;28;19912;-57
2022/03/05 09:12:03;;;;;;;;;;;3.30;99.90;;;;;;5093077;28;20018;-58
2022/03/05 09:14:28;;;;;;;;;;;3.40;99.90;;;;;;5092685;28;19908;-57
2022/03/05 09:16:56;;;;;;;;;;;3.50;99.90;;;;;;5092651;28;20362;-58
2022/03/05 09:19:22;;;;;;;;;;;3.60;99.90;;;;;;5092332;28;19916;-57
2022/03/05 09:21:47;;;;;;;;;;;3.70;99.90;;;;;;5092611;28;19908;-59
2022/03/05 09:24:13;;;;;;;;;;;3.70;99.90;;;;;;5092864;28;19934;-57
2022/03/05 09:26:38;;;;;;;;;;;3.90;99.90;;;;;;5092163;28;19916;-57
2022/03/05 09:29:04;;;;;;;;;;;3.90;99.90;;;;;;5092874;28;20323;-57
2022/03/05 09:31:30;;;;;;;;;;;4.00;99.90;;;;;;5078872;28;19920;-58
2022/03/05 09:33:55;;;;;;;;;;;4.10;99.90;;;;;;5071856;28;19908;-57
2022/03/05 09:36:21;;;;;;;;;;;4.10;99.90;;;;;;5072704;28;20371;-57
2022/03/05 09:38:48;;;;;;;;;;;4.20;99.90;;;;;;5072447;28;20363;-58
2022/03/05 09:41:13;;;;;;;;;;;4.30;99.90;;;;;;5077496;28;19919;-58
2022/03/05 09:43:39;;;;;;;;;;;4.30;99.90;;;;;;5098194;28;19920;-57
2022/03/05 09:46:04;;;;;;;;;;;4.40;99.90;;;;;;5117149;28;20417;-58
2022/03/05 09:48:30;;;;;;;;;;;4.40;99.90;;;;;;5096551;28;19908;-57
2022/03/05 09:50:57;;;;;;;;;;;4.50;99.90;;;;;;5096515;28;20282;-57
2022/03/05 09:53:29;;;;;;;;;;;4.60;99.90;;;;;;5096820;28;19911;-58
2022/03/05 09:55:54;;;;;;;;;;;4.70;99.90;;;;;;5095996;28;20010;-58
2022/03/05 09:58:20;;;;;;;;;;;4.80;99.90;;;;;;5089430;28;19959;-58
2022/03/05 10:00:45;;;;;;;;;;;4.80;99.90;;;;;;5080413;28;19913;-58
2022/03/05 10:03:14;;;;;;;;;;;4.90;99.90;;;;;;5109002;28;20326;-56
2022/03/05 10:05:40;;;;;;;;;;;5.00;99.90;;;;;;5108890;28;19940;-57
2022/03/05 10:08:10;;;;;;;;;;;5.00;99.90;;;;;;5096559;28;19974;-58
2022/03/05 10:10:41;;;;;;;;;;;5.10;99.90;;;;;;5095573;28;20441;-57
2022/03/05 10:13:15;;;;;;;;;;;5.20;99.90;;;;;;5096280;28;19961;-57
2022/03/05 10:15:41;;;;;;;;;;;5.30;99.90;;;;;;5095797;28;19944;-59
2022/03/05 10:18:06;;;;;;;;;;;5.40;99.90;;;;;;5078086;28;19959;-57
2022/03/05 10:20:33;;;;;;;;;;;5.40;99.90;;;;;;5077873;28;19954;-57
2022/03/05 10:23:01;;;;;;;;;;;5.50;99.90;;;;;;5075264;28;19946;-58
2022/03/05 10:25:27;;;;;;;;;;;5.50;99.90;;;;;;5075940;28;19978;-58
2022/03/05 10:27:56;;;;;;;;;;;5.60;99.90;;;;;;5075544;28;19912;-57
2022/03/05 10:30:32;;;;;;;;;;;5.60;99.90;;;;;;5090286;28;19920;-57
2022/03/05 10:32:57;;;;;;;;;;;5.70;99.90;;;;;;5095806;28;19911;-58
2022/03/05 10:35:23;;;;;;;;;;;5.70;99.90;;;;;;5096094;28;19923;-57
2022/03/05 10:37:52;;;;;;;;;;;5.80;99.90;;;;;;5095150;28;19958;-57
2022/03/05 10:40:26;;;;;;;;;;;5.80;99.90;;;;;;5084967;28;20350;-56
2022/03/05 10:42:52;;;;;;;;;;;5.90;99.90;;;;;;5113192;28;20374;-58
2022/03/05 10:45:18;;;;;;;;;;;6.00;99.90;;;;;;5110018;28;19908;-57
2022/03/05 10:47:47;;;;;;;;;;;6.00;99.90;;;;;;5095554;28;19908;-57
2022/03/05 10:50:19;;;;;;;;;;;6.10;99.90;;;;;;5095686;28;20297;-56
2022/03/05 10:52:45;;;;;;;;;;;6.20;99.90;;;;;;5094248;28;20014;-58
2022/03/05 10:55:14;;;;;;;;;;;6.20;99.90;;;;;;5095501;28;19919;-58
2022/03/05 10:57:54;;;;;;;;;;;6.30;99.90;;;;;;5076973;28;19908;-57
2022/03/05 11:00:19;;;;;;;;;;;6.40;99.90;;;;;;5075408;28;19923;-57
2022/03/05 11:02:45;;;;;;;;;;;6.50;99.90;;;;;;5074880;28;19916;-56
2022/03/05 11:05:10;;;;;;;;;;;6.50;99.90;;;;;;5074702;28;19909;-57
2022/03/05 11:07:37;;;;;;;;;;;6.60;99.90;;;;;;5091254;28;20260;-57
2022/03/05 11:10:03;;;;;;;;;;;6.70;99.90;;;;;;5095440;28;19965;-57
2022/03/05 11:12:30;;;;;;;;;;;6.80;99.90;;;;;;5094880;28;19943;-56
2022/03/05 11:14:56;;;;;;;;;;;6.90;99.90;;;;;;5094640;28;19999;-57
2022/03/05 11:17:21;;;;;;;;;;;6.90;99.90;;;;;;5093723;28;20057;-56
2022/03/05 11:19:47;;;;;;;;;;;7.10;99.90;;;;;;5112482;28;20301;-57
2022/03/05 11:22:14;;;;;;;;;;;7.10;99.90;;;;;;5104423;28;19919;-57
2022/03/05 11:24:40;;;;;;;;;;;7.20;99.90;;;;;;5094776;28;19916;-57
2022/03/05 11:27:06;;;;;;;;;;;7.30;99.90;;;;;;5094469;28;20317;-58
2022/03/05 11:29:51;;;;;;;;;;;7.30;99.90;;;;;;5095149;28;20424;-58
2022/03/05 11:32:18;;;;;;;;;;;7.30;95.60;;;;;;5094491;28;19989;-57
2022/03/05 11:34:44;;;;;;;;;;;7.30;99.20;;;;;;5103000;28;19912;-57
2022/03/05 11:37:26;;;;;;;;;;;7.40;99.90;;;;;;5111709;28;19959;-57
2022/03/05 11:39:52;;;;;;;;;;;7.60;99.90;;;;;;5073731;28;19909;-56
2022/03/05 11:42:38;;;;;;;;;;;7.70;99.90;;;;;;5074467;28;19916;-57
2022/03/05 11:45:22;;;;;;;;;;;7.80;99.90;;;;;;5073670;28;19916;-56
2022/03/05 11:47:48;;;;;;;;;;;7.90;99.90;;;;;;5088755;28;19920;-58
2022/03/05 11:50:16;;;;;;;;;;;8.00;99.90;;;;;;5094546;28;19908;-57
2022/03/05 11:52:42;;;;;;;;;;;8.10;99.90;;;;;;5078438;28;20270;-57
2022/03/05 11:55:10;;;;;;;;;;;8.10;93.30;;;;;;5073685;28;19909;-57
2022/03/05 11:57:36;;;;;;;;;;;8.10;91.90;;;;;;5090332;28;19916;-57
2022/03/05 12:00:03;;;;;;;;;;;8.10;88.70;;;;;;5094418;28;19915;-57
2022/03/05 12:02:50;;;;;;;;;;;8.20;98.60;;;;;;5093650;28;19938;-57
2022/03/05 12:05:34;;;;;;;;;;;8.40;99.90;;;;;;5075388;28;19912;-58
2022/03/05 12:08:00;;;;;;;;;;;8.50;99.40;;;;;;5104801;28;19914;-56
2022/03/05 12:10:25;;;;;;;;;;;8.60;99.90;;;;;;5112824;28;19908;-57
2022/03/05 12:12:55;;;;;;;;;;;8.60;95.20;;;;;;5093767;28;19915;-56
2022/03/05 12:15:33;;;;;;;;;;;8.70;90.80;;;;;;5093561;28;19908;-57
2022/03/05 12:18:00;;;;;;;;;;;8.70;91.70;;;;;;5093913;28;19977;-57
2022/03/05 12:20:27;;;;;;;;;;;8.80;95.90;;;;;;5093963;28;19912;-57
2022/03/05 12:22:58;;;;;;;;;;;9.00;98.10;;;;;;5095006;28;19924;-57
2022/03/05 12:25:27;;;;;;;;;;;9.00;94.30;;;;;;5114200;28;19915;-56
2022/03/05 12:27:53;;;;;;;;;;;9.10;96.40;;;;;;5113899;28;19912;-57
2022/03/05 12:30:19;;;;;;;;;;;9.10;83.30;;;;;;5096135;28;19928;-58
2022/03/05 12:32:47;;;;;;;;;;;9.20;94.10;;;;;;5085904;28;19912;-58
2022/03/05 12:35:13;;;;;;;;;;;9.20;90.00;;;;;;5080694;28;19919;-58
2022/03/05 12:37:39;;;;;;;;;;;9.30;94.70;;;;;;5108800;28;19919;-56
2022/03/05 12:40:05;;;;;;;;;;;9.40;91.50;;;;;;5111730;28;19908;-56
2022/03/05 12:42:45;;;;;;;;;;;9.30;82.70;;;;;;5090276;28;19927;-58
2022/03/05 12:45:14;;;;;;;;;;;9.30;81.10;;;;;;5082442;28;19912;-57
2022/03/05 12:47:39;;;;;;;;;;;9.50;93.00;;;;;;5087031;28;20363;-57
2022/03/05 12:50:21;;;;;;;;;;;9.60;95.40;;;;;;5076952;28;19912;-57
2022/03/05 12:53:00;;;;;;;;;;;9.70;88.50;;;;;;5072973;28;20019;-57
2022/03/05 12:55:27;;;;;;;;;;;9.60;79.20;;;;;;5074957;28;19913;-57
2022/03/05 12:57:55;;;;;;;;;;;9.60;71.60;;;;;;5079891;28;19916;-57
2022/03/05 13:00:20;;;;;;;;;;;9.70;89.70;;;;;;5091391;28;20011;-58
2022/03/05 13:02:48;;;;;;;;;;;9.80;85.30;;;;;;5091736;28;20504;-57
2022/03/05 13:05:15;;;;;;;;;;;9.80;81.10;;;;;;5088508;28;19956;-56
2022/03/05 13:07:40;;;;;;;;;;;9.70;72.60;;;;;;5079417;28;19919;-56
2022/03/05 13:10:07;;;;;;;;;;;9.80;84.10;;;;;;5093105;28;19909;-56
2022/03/05 13:12:36;;;;;;;;;;;9.70;78.90;;;;;;5092035;28;20006;-57
2022/03/05 13:15:01;;;;;;;;;;;9.80;88.60;;;;;;5091602;28;19912;-57
2022/03/05 13:17:27;;;;;;;;;;;9.70;72.20;;;;;;5085766;28;20369;-56
2022/03/05 13:19:58;;;;;;;;;;;9.80;72.80;;;;;;5086812;28;19952;-57
2022/03/05 13:22:25;;;;;;;;;;;9.60;70.50;;;;;;5087065;28;19923;-57
2022/03/05 13:24:50;;;;;;;;;;;9.60;74.60;;;;;;5091386;28;19936;-57
2022/03/05 13:27:15;;;;;;;;;;;9.70;73.80;;;;;;5072655;28;19951;-57
2022/03/05 13:29:41;;;;;;;;;;;9.90;73.60;;;;;;5073870;28;19962;-57
2022/03/05 13:32:06;;;;;;;;;;;10.10;71.40;;;;;;5078716;28;19921;-57
2022/03/05 13:34:32;;;;;;;;;;;10.40;81.00;;;;;;5072833;28;19909;-56
2022/03/05 13:37:07;;;;;;;;;;;10.70;76.30;;;;;;5080488;28;19912;-56
2022/03/05 13:39:33;;;;;;;;;;;10.90;68.50;;;;;;5083955;28;19924;-57
2022/03/05 13:41:59;;;;;;;;;;;11.00;66.60;;;;;;5081442;28;19923;-57
2022/03/05 13:44:26;;;;;;;;;;;11.00;64.20;;;;;;5072639;28;19912;-56
2022/03/05 13:46:53;;;;;;;;;;;11.00;64.20;;;;;;5071926;28;20433;-57
2022/03/05 13:49:19;;;;;;;;;;;11.00;65.60;;;;;;5072377;28;19908;-57
2022/03/05 13:51:46;;;;;;;;;;;11.30;76.00;;;;;;5087489;28;19919;-56
2022/03/05 13:54:12;;;;;;;;;;;11.60;77.90;;;;;;5092027;28;20358;-57
2022/03/05 13:56:45;;;;;;;;;;;12.10;73.90;;;;;;5087085;28;19955;-57
2022/03/05 13:59:11;;;;;;;;;;;12.40;70.10;;;;;;5083736;28;19924;-56
2022/03/05 14:01:37;;;;;;;;;;;12.60;69.40;;;;;;5083893;28;19916;-56
2022/03/05 14:04:03;;;;;;;;;;;12.70;66.80;;;;;;5092645;28;19920;-56
2022/03/05 14:06:29;;;;;;;;;;;12.70;58.30;;;;;;5075006;28;19913;-57
2022/03/05 14:08:54;;;;;;;;;;;12.80;60.50;;;;;;5079946;28;19919;-57
2022/03/05 14:11:26;;;;;;;;;;;13.00;64.40;;;;;;5092501;28;19931;-57
2022/03/05 14:13:52;;;;;;;;;;;13.20;60.30;;;;;;5076114;28;19908;-57
2022/03/05 14:16:32;;;;;;;;;;;13.40;63.50;;;;;;5086619;28;19931;-57
2022/03/05 14:18:57;;;;;;;;;;;13.50;57.90;;;;;;5088722;28;20003;-57
2022/03/05 14:21:23;;;;;;;;;;;13.50;57.10;;;;;;5092420;28;20005;-57
2022/03/05 14:23:49;;;;;;;;;;;13.80;63.00;;;;;;5089768;28;19927;-57